KMCK

Mc Cook Ben Nelson Regional Airport

Mc Cook, Nebraska, USA
METAR KMCK 171353Z AUTO 20003KT 10SM CLR M04/M07 A3017 RMK AO2 SLP240 T10441067
Observed Flight Rules
Dec-17 @ 13:53 UTC (49 minutes ago) Visual Flight Rules
Wind Visibility Clouds
200° at 3 knots 10 miles
  • Clear skies
Temperatures Readings
Current -4°C / 25°F
Dewpoint -7°C / 19°F
Humidity 80%
Altimeter 30.17" Hg
Pressure 1024 hPa
Elevation 782
METAR KMCK 171353Z AUTO 20003KT 10SM CLR M04/M07 A3017 RMK AO2 SLP240 T10441067
Observed Flight Rules
Dec-17 @ 13:53 UTC
(49 minutes ago)
VFR
Wind Visibility
200° at 3 knots 10 miles
Clouds
  • Clear skies
Temperature Dewpoint
-4°C / 25°F -7°C / 19°F
Humidity Altimeter Pressure
80% 30.17" Hg 1024 hPa